Time;durP1;ratioP1;P1;durP2;ratioP2;P2;SDS_P1;SDS_P2;PMS_P1;PMS_P2;Temp;Humidity;BMP_temperature;BMP_pressure;BME280_temperature;BME280_humidity;BME280_pressure;Samples;Min_cycle;Max_cycle;Signal;HPM_P1;HPM_P2
2022/10/27 00:07:13;;;;;;;0.98;0.70;;;19.50;55.40;;;;;;20660848;28;20428;-76
2022/10/27 00:17:13;;;;;;;1.02;0.60;;;19.50;55.50;;;;;;20670624;28;20384;-76
2022/10/27 00:27:14;;;;;;;1.03;0.73;;;19.50;55.50;;;;;;20656205;28;20481;-76
2022/10/27 00:37:15;;;;;;;0.73;0.65;;;19.50;55.60;;;;;;20675685;28;20292;-77
2022/10/27 00:47:31;;;;;;;0.63;0.47;;;19.50;55.60;;;;;;20687284;28;20045;-76
2022/10/27 00:57:31;;;;;;;;;;;19.40;55.60;;;;;;20655893;28;20030;-78
2022/10/27 01:07:32;;;;;;;1.30;0.60;;;19.50;55.70;;;;;;20658233;28;19944;-77
2022/10/27 01:17:52;;;;;;;0.98;0.60;;;19.40;55.70;;;;;;20681997;28;20031;-77
2022/10/27 01:28:00;;;;;;;1.35;0.80;;;19.40;55.80;;;;;;20649460;28;20030;-76
2022/10/27 01:38:15;;;;;;;0.63;0.50;;;19.40;55.90;;;;;;20640663;28;20045;-77
2022/10/27 01:48:15;;;;;;;2.55;0.70;;;19.40;55.90;;;;;;20663228;28;20048;-76
2022/10/27 01:58:47;;;;;;;1.08;0.85;;;19.30;56.00;;;;;;20659135;28;20030;-76
2022/10/27 02:09:03;;;;;;;1.05;0.60;;;19.30;56.00;;;;;;21042860;23;20597;-86
2022/10/27 02:19:17;;;;;;;1.67;0.70;;;19.30;56.10;;;;;;20613351;28;20117;-87
2022/10/27 02:29:35;;;;;;;1.45;0.73;;;19.30;56.10;;;;;;20635278;28;20042;-87
2022/10/27 02:39:46;;;;;;;0.60;0.50;;;19.30;56.10;;;;;;20623122;28;20038;-87
2022/10/27 02:49:48;;;;;;;0.90;0.60;;;19.30;56.20;;;;;;20677992;28;20046;-89
2022/10/27 02:59:51;;;;;;;0.75;0.60;;;19.20;56.20;;;;;;20618925;28;20053;-88
2022/10/27 03:09:53;;;;;;;0.85;0.60;;;19.20;56.20;;;;;;20623563;28;20066;-88
2022/10/27 03:19:57;;;;;;;0.70;0.50;;;19.20;56.30;;;;;;20648787;28;20440;-88
2022/10/27 03:30:02;;;;;;;1.38;0.52;;;19.20;56.40;;;;;;20652300;28;20069;-86
2022/10/27 03:40:04;;;;;;;1.20;0.67;;;19.10;56.40;;;;;;20611605;28;20026;-87
2022/10/27 03:50:05;;;;;;;1.20;0.70;;;19.20;56.50;;;;;;20649010;28;20134;-88
2022/10/27 04:00:12;;;;;;;0.68;0.60;;;19.10;56.50;;;;;;20635590;28;20038;-88
2022/10/27 04:10:12;;;;;;;1.73;0.77;;;19.10;56.60;;;;;;20648063;28;20034;-86
2022/10/27 04:20:15;;;;;;;1.85;0.60;;;19.10;56.60;;;;;;20660193;28;20034;-86
2022/10/27 04:30:17;;;;;;;1.33;0.52;;;19.10;56.70;;;;;;20632650;28;20038;-88
2022/10/27 04:40:20;;;;;;;0.63;0.52;;;19.10;56.80;;;;;;20658588;28;20089;-89
2022/10/27 04:50:23;;;;;;;0.70;0.60;;;19.00;56.70;;;;;;20615742;28;20069;-89
2022/10/27 05:00:27;;;;;;;1.33;0.63;;;19.00;56.80;;;;;;20667804;28;20023;-88
2022/10/27 05:10:30;;;;;;;1.02;0.70;;;19.00;56.90;;;;;;20678588;28;20042;-89
2022/10/27 05:20:30;;;;;;;1.23;0.68;;;19.00;56.90;;;;;;20615363;28;20019;-88
2022/10/27 05:30:34;;;;;;;1.95;0.70;;;19.00;57.00;;;;;;20692416;28;20109;-88
2022/10/27 05:40:35;;;;;;;0.50;0.50;;;19.00;57.00;;;;;;20647696;28;20035;-89
2022/10/27 05:50:39;;;;;;;1.20;0.60;;;18.90;57.00;;;;;;20642772;28;20044;-89
2022/10/27 06:00:40;;;;;;;1.08;0.55;;;18.90;57.00;;;;;;20670421;28;20436;-88
2022/10/27 06:10:41;;;;;;;0.70;0.50;;;18.90;57.10;;;;;;20642723;28;20053;-88
2022/10/27 06:20:47;;;;;;;1.20;0.60;;;18.90;57.10;;;;;;20624645;28;20036;-88
2022/10/27 06:30:49;;;;;;;0.73;0.43;;;18.90;57.10;;;;;;20646356;28;20382;-87
2022/10/27 06:41:10;;;;;;;0.65;0.50;;;18.80;57.10;;;;;;20641730;28;20050;-87
2022/10/27 06:51:12;;;;;;;0.50;0.40;;;18.80;57.20;;;;;;20633554;28;20188;-88
2022/10/27 07:01:16;;;;;;;1.88;1.00;;;18.80;57.20;;;;;;20637210;28;20389;-86
2022/10/27 07:11:16;;;;;;;1.30;0.50;;;18.80;57.20;;;;;;20627540;28;20060;-87
2022/10/27 07:21:21;;;;;;;0.38;0.38;;;18.80;57.20;;;;;;20635905;28;20041;-87
2022/10/27 07:31:23;;;;;;;0.97;0.60;;;18.80;57.30;;;;;;20650420;28;20057;-88
2022/10/27 07:41:24;;;;;;;1.40;0.40;;;18.70;57.30;;;;;;20645139;28;20044;-87
2022/10/27 07:51:25;;;;;;;0.88;0.40;;;18.70;57.30;;;;;;20647693;28;20050;-87
2022/10/27 08:01:27;;;;;;;0.35;0.35;;;18.70;57.40;;;;;;20656114;28;20508;-87
2022/10/27 08:11:31;;;;;;;0.80;0.40;;;18.70;57.40;;;;;;20629273;28;20487;-87
2022/10/27 08:21:32;;;;;;;0.70;0.50;;;18.80;57.50;;;;;;20593011;28;20058;-86
2022/10/27 08:31:35;;;;;;;0.73;0.40;;;18.70;57.40;;;;;;20614728;28;20034;-85
2022/10/27 08:41:55;;;;;;;1.23;0.65;;;18.80;57.30;;;;;;20637885;28;20034;-85
2022/10/27 08:52:03;;;;;;;2.03;0.70;;;18.80;57.20;;;;;;20653332;28;20053;-85
2022/10/27 09:02:40;;;;;;;0.50;0.50;;;18.80;57.20;;;;;;20645859;28;20178;-86
2022/10/27 09:13:10;;;;;;;0.40;0.40;;;18.90;57.10;;;;;;20660065;28;20042;-84
2022/10/27 09:23:16;;;;;;;0.35;0.28;;;19.00;56.80;;;;;;20623811;28;20061;-85
2022/10/27 09:33:26;;;;;;;0.95;0.50;;;19.10;56.70;;;;;;20632482;28;20039;-78
2022/10/27 09:43:29;;;;;;;1.25;0.70;;;19.20;56.50;;;;;;20639095;28;20041;-83
2022/10/27 09:53:44;;;;;;;2.05;0.30;;;19.30;56.30;;;;;;20617101;28;20038;-78
2022/10/27 10:03:55;;;;;;;1.45;0.60;;;19.50;56.30;;;;;;20575884;28;20507;-89
2022/10/27 10:13:59;;;;;;;0.63;0.40;;;19.50;56.00;;;;;;20619174;28;20038;-85
2022/10/27 10:24:04;;;;;;;0.82;0.57;;;19.60;55.80;;;;;;20638159;28;20034;-90
2022/10/27 10:34:22;;;;;;;1.35;0.70;;;19.70;55.40;;;;;;20657694;28;20072;-85
2022/10/27 10:44:23;;;;;;;0.98;0.82;;;19.80;55.10;;;;;;20645131;28;20026;-87
2022/10/27 10:54:28;;;;;;;2.67;1.00;;;20.10;55.10;;;;;;20628101;28;20786;-88
2022/10/27 11:04:31;;;;;;;1.33;0.80;;;20.30;56.00;;;;;;20582595;28;20046;-86
2022/10/27 11:14:32;;;;;;;5.78;1.30;;;20.40;56.50;;;;;;20603069;28;20656;-87
2022/10/27 11:25:00;;;;;;;4.07;1.15;;;20.60;56.70;;;;;;20618639;28;20126;-86
2022/10/27 11:35:22;;;;;;;3.80;1.70;;;20.90;58.20;;;;;;20578117;28;20042;-73
2022/10/27 11:45:43;;;;;;;6.20;1.15;;;21.00;57.50;;;;;;20591455;28;20038;-74
2022/10/27 11:55:53;;;;;;;2.78;1.25;;;21.00;56.70;;;;;;20604790;28;20045;-74
2022/10/27 12:06:11;;;;;;;5.15;0.93;;;21.10;55.80;;;;;;20610810;28;20042;-77
2022/10/27 12:16:17;;;;;;;4.63;1.17;;;21.20;55.10;;;;;;20632479;28;20386;-76
2022/10/27 12:26:49;;;;;;;2.20;0.90;;;21.20;54.80;;;;;;20616899;28;20057;-78
2022/10/27 12:36:52;;;;;;;7.20;1.33;;;21.50;55.30;;;;;;20609665;28;20050;-77
2022/10/27 12:47:11;;;;;;;3.65;1.13;;;21.70;55.50;;;;;;20622125;28;20118;-77
2022/10/27 12:58:01;;;;;;;2.63;0.85;;;21.60;55.00;;;;;;20600423;28;20543;-73
2022/10/27 13:08:21;;;;;;;2.33;1.00;;;21.70;54.90;;;;;;20528565;28;20051;-76
2022/10/27 13:18:57;;;;;;;1.40;0.90;;;21.80;54.80;;;;;;20653288;28;20036;-77
2022/10/27 13:29:05;;;;;;;4.65;0.90;;;21.80;54.40;;;;;;20630224;28;20042;-73
2022/10/27 13:39:12;;;;;;;6.15;1.17;;;21.80;54.60;;;;;;20574324;28;20039;-72
2022/10/27 13:49:40;;;;;;;5.53;1.10;;;21.90;54.10;;;;;;20589883;28;20636;-71
2022/10/27 13:59:43;;;;;;;7.70;1.70;;;22.10;54.40;;;;;;20589186;28;20485;-71
2022/10/27 14:09:46;;;;;;;6.30;1.35;;;22.10;54.70;;;;;;20620204;28;20137;-71
2022/10/27 14:20:04;;;;;;;6.25;1.45;;;22.10;54.50;;;;;;20597250;28;20118;-72
2022/10/27 14:30:17;;;;;;;11.20;1.30;;;22.00;54.50;;;;;;20596015;28;20070;-69
2022/10/27 14:40:18;;;;;;;4.03;1.08;;;22.00;55.00;;;;;;20571773;28;20434;-69
2022/10/27 14:50:33;;;;;;;5.40;1.00;;;21.90;54.60;;;;;;20584472;28;20039;-72
2022/10/27 15:00:35;;;;;;;4.43;1.08;;;22.00;54.20;;;;;;20578154;28;20465;-70
2022/10/27 15:10:37;;;;;;;2.95;1.10;;;21.90;54.30;;;;;;20588325;28;20042;-72
2022/10/27 15:20:37;;;;;;;5.07;1.20;;;21.90;54.50;;;;;;20593712;28;20125;-75
2022/10/27 15:30:40;;;;;;;5.93;1.40;;;21.90;56.30;;;;;;20596380;28;20059;-74
2022/10/27 15:40:43;;;;;;;4.35;1.20;;;21.90;56.50;;;;;;20564521;28;20030;-73
2022/10/27 15:50:44;;;;;;;5.05;1.27;;;21.90;57.50;;;;;;20597985;28;20098;-73
2022/10/27 16:01:03;;;;;;;5.33;1.47;;;21.80;57.00;;;;;;20609388;28;20030;-74
2022/10/27 16:11:04;;;;;;;3.42;1.13;;;21.80;56.30;;;;;;20614259;28;20482;-73
2022/10/27 16:21:05;;;;;;;2.28;1.20;;;21.80;55.90;;;;;;20597260;28;20102;-72
2022/10/27 16:31:06;;;;;;;3.20;1.13;;;21.70;55.60;;;;;;20588148;28;20504;-70
2022/10/27 16:41:11;;;;;;;1.35;0.82;;;21.60;55.50;;;;;;20579662;28;20297;-72
2022/10/27 16:51:13;;;;;;;1.73;0.73;;;21.60;55.40;;;;;;20587169;28;20108;-77
2022/10/27 17:01:15;;;;;;;2.55;0.77;;;21.60;55.20;;;;;;20572238;28;20504;-80
2022/10/27 17:11:16;;;;;;;2.08;0.80;;;21.50;55.10;;;;;;20590459;28;20132;-79
2022/10/27 17:21:17;;;;;;;2.08;0.95;;;21.50;55.10;;;;;;20568957;28;20035;-77
2022/10/27 17:31:18;;;;;;;1.95;0.73;;;21.50;55.10;;;;;;20598737;28;20058;-76
2022/10/27 17:41:19;;;;;;;2.22;0.77;;;21.40;55.00;;;;;;20612877;28;20027;-80
2022/10/27 17:51:30;;;;;;;2.75;1.00;;;21.40;55.10;;;;;;20610590;28;20034;-78
2022/10/27 18:01:31;;;;;;;1.15;0.60;;;21.80;54.20;;;;;;20545103;28;20044;-77
2022/10/27 18:11:36;;;;;;;1.42;0.70;;;23.20;51.40;;;;;;20590966;28;20129;-78
2022/10/27 18:21:39;;;;;;;1.98;0.90;;;23.90;49.60;;;;;;20572096;28;20473;-78
2022/10/27 18:31:43;;;;;;;2.25;0.93;;;23.40;50.10;;;;;;20552782;28;20045;-80
2022/10/27 18:41:47;;;;;;;1.27;0.70;;;22.80;51.30;;;;;;20560533;28;20038;-78
2022/10/27 18:51:49;;;;;;;1.40;0.65;;;22.10;52.70;;;;;;20590983;28;20042;-78
2022/10/27 19:01:51;;;;;;;2.05;0.80;;;21.70;53.60;;;;;;20584005;28;20070;-78
2022/10/27 19:11:53;;;;;;;1.38;0.75;;;21.50;54.10;;;;;;20603332;28;20042;-79
2022/10/27 19:21:53;;;;;;;1.35;0.85;;;21.40;54.40;;;;;;20563171;28;20069;-78
2022/10/27 19:31:58;;;;;;;1.08;0.70;;;21.30;54.60;;;;;;20587837;28;20092;-78
2022/10/27 19:42:01;;;;;;;1.45;0.80;;;21.30;54.80;;;;;;20593815;28;20030;-78
2022/10/27 19:52:02;;;;;;;3.35;0.70;;;21.30;54.90;;;;;;20557698;28;20042;-79
2022/10/27 20:02:05;;;;;;;2.00;0.90;;;21.30;55.00;;;;;;20594066;28;20635;-79
2022/10/27 20:12:07;;;;;;;0.68;0.55;;;21.20;55.70;;;;;;20579119;28;20564;-78
2022/10/27 20:22:09;;;;;;;0.85;0.68;;;21.10;55.20;;;;;;20579350;28;20077;-78
2022/10/27 20:32:11;;;;;;;3.50;0.68;;;21.10;55.30;;;;;;20625079;28;20477;-78
2022/10/27 20:42:14;;;;;;;1.20;0.50;;;21.00;55.40;;;;;;20604814;28;20041;-78
2022/10/27 20:52:14;;;;;;;1.38;0.60;;;21.00;55.40;;;;;;20607896;28;20441;-79
2022/10/27 21:02:16;;;;;;;1.90;0.73;;;21.00;55.50;;;;;;20600594;28;20058;-78
2022/10/27 21:12:18;;;;;;;1.58;0.80;;;21.00;55.60;;;;;;20582397;28;20248;-78
2022/10/27 21:22:18;;;;;;;2.10;1.00;;;21.20;55.50;;;;;;20612155;28;20129;-78
2022/10/27 21:32:21;;;;;;;1.65;0.80;;;21.80;53.80;;;;;;20587504;28;20054;-79
2022/10/27 21:42:23;;;;;;;1.65;0.80;;;22.00;53.20;;;;;;20604169;28;20043;-78
2022/10/27 21:52:23;;;;;;;1.20;0.50;;;22.30;52.60;;;;;;20596370;28;20050;-78
2022/10/27 22:02:25;;;;;;;1.10;0.60;;;22.50;52.10;;;;;;20576588;28;20109;-77
2022/10/27 22:12:27;;;;;;;1.10;0.60;;;22.60;51.80;;;;;;20591555;28;20405;-78
2022/10/27 22:22:28;;;;;;;1.27;0.47;;;22.60;51.70;;;;;;20580145;28;20425;-78
2022/10/27 22:32:31;;;;;;;1.55;0.63;;;22.60;51.60;;;;;;20607984;28;20035;-78
2022/10/27 22:42:32;;;;;;;0.88;0.45;;;22.50;51.60;;;;;;20576447;28;20034;-78
2022/10/27 22:52:36;;;;;;;0.93;0.65;;;22.50;52.40;;;;;;20603980;28;20034;-77
2022/10/27 23:02:37;;;;;;;1.20;0.87;;;22.50;51.80;;;;;;20601055;28;20502;-78
2022/10/27 23:12:38;;;;;;;1.43;0.50;;;22.40;51.90;;;;;;20585576;28;20042;-78
2022/10/27 23:22:40;;;;;;;1.13;1.00;;;22.40;52.00;;;;;;20593814;28;20585;-78
2022/10/27 23:32:40;;;;;;;0.88;0.60;;;22.30;52.10;;;;;;20604354;28;20120;-78
2022/10/27 23:42:42;;;;;;;1.15;0.60;;;22.30;52.30;;;;;;20566185;28;20142;-79
2022/10/27 23:52:46;;;;;;;0.75;0.55;;;22.30;52.40;;;;;;20568159;28;20501;-77
